sensor_id;sensor_type;location;lat;lon;timestamp;P1;P2;P0
64861;PMS5003;62652;42.274;-71.436;2022-09-01T00:00:00;0.90;0.17;0.17
64861;PMS5003;62652;42.274;-71.436;2022-09-01T00:01:00;1.73;1.50;1.00
64861;PMS5003;62652;42.274;-71.436;2022-09-01T00:02:00;1.67;1.67;0.80
64861;PMS5003;62652;42.274;-71.436;2022-09-01T00:03:00;1.03;1.03;0.23
64861;PMS5003;62652;42.274;-71.436;2022-09-01T00:04:00;1.77;1.67;0.93
64861;PMS5003;62652;42.274;-71.436;2022-09-01T00:05:00;1.53;1.53;0.77
64861;PMS5003;62652;42.274;-71.436;2022-09-01T00:06:00;1.67;1.67;1.00
64861;PMS5003;62652;42.274;-71.436;2022-09-01T00:07:00;1.53;1.53;0.87
64861;PMS5003;62652;42.274;-71.436;2022-09-01T00:08:00;1.33;0.87;0.77
64861;PMS5003;62652;42.274;-71.436;2022-09-01T00:09:01;0.93;0.57;0.00
64861;PMS5003;62652;42.274;-71.436;2022-09-01T00:10:00;2.30;2.30;1.30
64861;PMS5003;62652;42.274;-71.436;2022-09-01T00:11:00;1.07;1.07;0.70
64861;PMS5003;62652;42.274;-71.436;2022-09-01T00:12:00;1.57;1.57;1.00
64861;PMS5003;62652;42.274;-71.436;2022-09-01T00:13:00;0.57;0.57;0.47
64861;PMS5003;62652;42.274;-71.436;2022-09-01T00:14:00;1.70;1.70;0.77
64861;PMS5003;62652;42.274;-71.436;2022-09-01T00:15:00;0.90;0.90;0.67
64861;PMS5003;62652;42.274;-71.436;2022-09-01T00:16:00;1.30;1.30;1.00
64861;PMS5003;62652;42.274;-71.436;2022-09-01T00:17:01;2.00;1.90;0.90
64861;PMS5003;62652;42.274;-71.436;2022-09-01T00:18:00;1.60;1.60;1.00
64861;PMS5003;62652;42.274;-71.436;2022-09-01T00:19:00;2.03;2.03;1.57
64861;PMS5003;62652;42.274;-71.436;2022-09-01T00:20:00;1.90;1.90;1.53
64861;PMS5003;62652;42.274;-71.436;2022-09-01T00:21:00;1.03;1.03;0.70
64861;PMS5003;62652;42.274;-71.436;2022-09-01T00:22:00;1.90;1.90;0.90
64861;PMS5003;62652;42.274;-71.436;2022-09-01T00:23:00;1.40;1.40;0.70
64861;PMS5003;62652;42.274;-71.436;2022-09-01T00:24:00;0.53;0.53;0.53
64861;PMS5003;62652;42.274;-71.436;2022-09-01T00:25:00;2.07;1.43;1.27
64861;PMS5003;62652;42.274;-71.436;2022-09-01T00:26:00;2.03;1.63;0.83
64861;PMS5003;62652;42.274;-71.436;2022-09-01T00:27:00;1.37;1.10;0.93
64861;PMS5003;62652;42.274;-71.436;2022-09-01T00:28:00;1.13;1.13;0.90
64861;PMS5003;62652;42.274;-71.436;2022-09-01T00:29:00;1.00;1.00;1.00
64861;PMS5003;62652;42.274;-71.436;2022-09-01T00:30:00;2.67;2.00;1.37
64861;PMS5003;62652;42.274;-71.436;2022-09-01T00:31:00;1.47;1.47;0.77
64861;PMS5003;62652;42.274;-71.436;2022-09-01T00:32:00;1.57;1.57;0.67
64861;PMS5003;62652;42.274;-71.436;2022-09-01T00:33:00;1.37;1.37;0.93
64861;PMS5003;62652;42.274;-71.436;2022-09-01T00:34:00;2.77;2.70;2.00
64861;PMS5003;62652;42.274;-71.436;2022-09-01T00:35:00;1.57;1.07;1.00
64861;PMS5003;62652;42.274;-71.436;2022-09-01T00:36:00;1.90;1.70;1.40
64861;PMS5003;62652;42.274;-71.436;2022-09-01T00:37:00;2.30;2.20;1.30
64861;PMS5003;62652;42.274;-71.436;2022-09-01T00:38:00;2.27;2.00;1.80
64861;PMS5003;62652;42.274;-71.436;2022-09-01T00:39:00;1.80;1.80;1.00
64861;PMS5003;62652;42.274;-71.436;2022-09-01T00:40:00;3.03;3.03;1.83
64861;PMS5003;62652;42.274;-71.436;2022-09-01T00:41:00;1.77;1.60;1.40
64861;PMS5003;62652;42.274;-71.436;2022-09-01T00:42:00;2.40;2.40;1.67
64861;PMS5003;62652;42.274;-71.436;2022-09-01T00:43:00;2.37;2.37;1.80
64861;PMS5003;62652;42.274;-71.436;2022-09-01T00:44:01;2.00;2.00;1.90
64861;PMS5003;62652;42.274;-71.436;2022-09-01T00:45:00;2.07;2.07;1.07
64861;PMS5003;62652;42.274;-71.436;2022-09-01T00:46:00;3.93;3.73;2.93
64861;PMS5003;62652;42.274;-71.436;2022-09-01T00:47:00;2.43;2.43;1.73
64861;PMS5003;62652;42.274;-71.436;2022-09-01T00:48:00;2.77;2.77;2.00
64861;PMS5003;62652;42.274;-71.436;2022-09-01T00:49:01;3.10;2.90;2.10
64861;PMS5003;62652;42.274;-71.436;2022-09-01T00:50:00;2.00;1.50;1.30
64861;PMS5003;62652;42.274;-71.436;2022-09-01T00:51:00;3.27;3.20;2.00
64861;PMS5003;62652;42.274;-71.436;2022-09-01T00:52:02;2.40;2.23;1.83
64861;PMS5003;62652;42.274;-71.436;2022-09-01T00:53:00;1.80;1.80;1.70
64861;PMS5003;62652;42.274;-71.436;2022-09-01T00:54:00;2.73;2.00;1.90
64861;PMS5003;62652;42.274;-71.436;2022-09-01T00:55:03;2.90;2.63;2.00
64861;PMS5003;62652;42.274;-71.436;2022-09-01T00:56:00;2.93;2.73;1.67
64861;PMS5003;62652;42.274;-71.436;2022-09-01T00:57:00;2.30;2.30;1.60
64861;PMS5003;62652;42.274;-71.436;2022-09-01T00:58:00;3.83;3.17;1.87
64861;PMS5003;62652;42.274;-71.436;2022-09-01T00:59:00;1.73;1.73;1.57
64861;PMS5003;62652;42.274;-71.436;2022-09-01T01:00:03;2.00;1.90;1.77
64861;PMS5003;62652;42.274;-71.436;2022-09-01T01:01:00;3.67;3.00;1.90
64861;PMS5003;62652;42.274;-71.436;2022-09-01T01:02:00;2.93;2.93;2.13
64861;PMS5003;62652;42.274;-71.436;2022-09-01T01:03:00;2.30;2.20;1.60
64861;PMS5003;62652;42.274;-71.436;2022-09-01T01:04:00;1.53;1.53;1.23
64861;PMS5003;62652;42.274;-71.436;2022-09-01T01:05:00;2.50;2.50;1.80
64861;PMS5003;62652;42.274;-71.436;2022-09-01T01:06:01;2.67;2.67;1.77
64861;PMS5003;62652;42.274;-71.436;2022-09-01T01:07:00;3.23;2.97;1.87
64861;PMS5003;62652;42.274;-71.436;2022-09-01T01:08:01;3.30;3.00;1.73
64861;PMS5003;62652;42.274;-71.436;2022-09-01T01:09:00;4.13;3.50;2.80
64861;PMS5003;62652;42.274;-71.436;2022-09-01T01:10:00;2.47;2.47;1.57
64861;PMS5003;62652;42.274;-71.436;2022-09-01T01:11:00;3.77;3.73;2.73
64861;PMS5003;62652;42.274;-71.436;2022-09-01T01:12:01;2.80;1.93;1.30
64861;PMS5003;62652;42.274;-71.436;2022-09-01T01:13:00;2.93;2.57;2.03
64861;PMS5003;62652;42.274;-71.436;2022-09-01T01:14:02;2.23;2.23;2.23
64861;PMS5003;62652;42.274;-71.436;2022-09-01T01:15:00;3.03;3.03;1.90
64861;PMS5003;62652;42.274;-71.436;2022-09-01T01:16:00;2.13;2.10;1.77
64861;PMS5003;62652;42.274;-71.436;2022-09-01T01:17:00;1.97;1.87;1.83
64861;PMS5003;62652;42.274;-71.436;2022-09-01T01:18:00;1.57;1.47;1.00
64861;PMS5003;62652;42.274;-71.436;2022-09-01T01:19:00;2.97;2.97;1.53
64861;PMS5003;62652;42.274;-71.436;2022-09-01T01:20:00;1.87;1.87;1.33
64861;PMS5003;62652;42.274;-71.436;2022-09-01T01:21:00;1.00;1.00;0.30
64861;PMS5003;62652;42.274;-71.436;2022-09-01T01:22:00;2.43;2.43;1.93
64861;PMS5003;62652;42.274;-71.436;2022-09-01T01:23:02;1.63;1.63;0.87
64861;PMS5003;62652;42.274;-71.436;2022-09-01T01:24:01;2.63;2.63;1.73
64861;PMS5003;62652;42.274;-71.436;2022-09-01T01:25:00;2.33;2.30;1.60
64861;PMS5003;62652;42.274;-71.436;2022-09-01T01:26:00;2.23;2.23;1.80
64861;PMS5003;62652;42.274;-71.436;2022-09-01T01:27:00;1.33;1.33;0.77
64861;PMS5003;62652;42.274;-71.436;2022-09-01T01:28:06;2.07;2.07;1.63
64861;PMS5003;62652;42.274;-71.436;2022-09-01T01:29:00;1.93;1.43;1.27
64861;PMS5003;62652;42.274;-71.436;2022-09-01T01:30:00;3.07;2.87;1.97
64861;PMS5003;62652;42.274;-71.436;2022-09-01T01:31:01;2.10;2.10;1.83
64861;PMS5003;62652;42.274;-71.436;2022-09-01T01:32:00;1.60;1.60;0.60
64861;PMS5003;62652;42.274;-71.436;2022-09-01T01:33:00;3.10;3.10;2.37
64861;PMS5003;62652;42.274;-71.436;2022-09-01T01:34:00;1.90;1.90;1.40
64861;PMS5003;62652;42.274;-71.436;2022-09-01T01:35:00;2.90;2.90;1.90
64861;PMS5003;62652;42.274;-71.436;2022-09-01T01:36:00;3.23;3.00;2.00
64861;PMS5003;62652;42.274;-71.436;2022-09-01T01:37:00;3.20;2.20;1.43
64861;PMS5003;62652;42.274;-71.436;2022-09-01T01:38:00;2.17;1.87;1.73
64861;PMS5003;62652;42.274;-71.436;2022-09-01T01:39:01;2.13;2.13;1.07
64861;PMS5003;62652;42.274;-71.436;2022-09-01T01:40:00;3.03;3.00;2.00
64861;PMS5003;62652;42.274;-71.436;2022-09-01T01:41:00;3.47;3.30;2.13
64861;PMS5003;62652;42.274;-71.436;2022-09-01T01:42:00;2.73;2.63;1.73
64861;PMS5003;62652;42.274;-71.436;2022-09-01T01:43:00;3.00;3.00;2.00
64861;PMS5003;62652;42.274;-71.436;2022-09-01T01:44:01;2.77;2.60;1.67
64861;PMS5003;62652;42.274;-71.436;2022-09-01T01:45:00;2.97;2.97;2.20
64861;PMS5003;62652;42.274;-71.436;2022-09-01T01:46:00;3.00;3.00;2.00
64861;PMS5003;62652;42.274;-71.436;2022-09-01T01:47:00;3.30;3.30;2.93
64861;PMS5003;62652;42.274;-71.436;2022-09-01T01:48:00;2.43;2.43;1.67
64861;PMS5003;62652;42.274;-71.436;2022-09-01T01:49:00;3.30;3.10;2.10
64861;PMS5003;62652;42.274;-71.436;2022-09-01T01:50:00;3.27;3.00;2.00
64861;PMS5003;62652;42.274;-71.436;2022-09-01T01:51:00;3.10;2.90;2.20
64861;PMS5003;62652;42.274;-71.436;2022-09-01T01:52:00;2.43;2.33;1.87
64861;PMS5003;62652;42.274;-71.436;2022-09-01T01:53:00;2.70;2.23;1.43
64861;PMS5003;62652;42.274;-71.436;2022-09-01T01:54:00;4.10;3.50;1.73
64861;PMS5003;62652;42.274;-71.436;2022-09-01T01:55:00;3.50;3.20;2.20
64861;PMS5003;62652;42.274;-71.436;2022-09-01T01:56:00;3.00;3.00;2.00
64861;PMS5003;62652;42.274;-71.436;2022-09-01T01:57:00;2.63;2.00;1.90
64861;PMS5003;62652;42.274;-71.436;2022-09-01T01:58:00;1.87;1.87;1.37
64861;PMS5003;62652;42.274;-71.436;2022-09-01T01:59:00;3.40;3.40;2.40
64861;PMS5003;62652;42.274;-71.436;2022-09-01T02:00:00;2.70;2.70;1.47
64861;PMS5003;62652;42.274;-71.436;2022-09-01T02:01:00;1.80;1.80;1.23
64861;PMS5003;62652;42.274;-71.436;2022-09-01T02:02:00;4.13;3.80;2.60
64861;PMS5003;62652;42.274;-71.436;2022-09-01T02:03:00;2.63;2.40;1.27
64861;PMS5003;62652;42.274;-71.436;2022-09-01T02:04:00;2.60;2.60;1.60
64861;PMS5003;62652;42.274;-71.436;2022-09-01T02:05:00;3.37;3.37;3.00
64861;PMS5003;62652;42.274;-71.436;2022-09-01T02:06:00;4.00;3.37;2.27
64861;PMS5003;62652;42.274;-71.436;2022-09-01T02:07:00;1.33;1.33;0.90
64861;PMS5003;62652;42.274;-71.436;2022-09-01T02:08:02;3.00;3.00;2.20
64861;PMS5003;62652;42.274;-71.436;2022-09-01T02:09:00;2.63;2.63;1.97
64861;PMS5003;62652;42.274;-71.436;2022-09-01T02:10:00;3.50;3.50;2.67
64861;PMS5003;62652;42.274;-71.436;2022-09-01T02:11:00;2.63;2.63;1.83
64861;PMS5003;62652;42.274;-71.436;2022-09-01T02:12:00;2.87;2.50;1.37
64861;PMS5003;62652;42.274;-71.436;2022-09-01T02:13:01;3.00;3.00;2.43
64861;PMS5003;62652;42.274;-71.436;2022-09-01T02:14:00;2.23;2.20;2.00
64861;PMS5003;62652;42.274;-71.436;2022-09-01T02:15:00;3.77;3.77;2.57
64861;PMS5003;62652;42.274;-71.436;2022-09-01T02:16:01;3.13;3.13;2.00
64861;PMS5003;62652;42.274;-71.436;2022-09-01T02:17:00;3.13;2.63;1.53
64861;PMS5003;62652;42.274;-71.436;2022-09-01T02:18:00;2.83;2.83;2.20
64861;PMS5003;62652;42.274;-71.436;2022-09-01T02:19:00;3.07;3.03;1.60
64861;PMS5003;62652;42.274;-71.436;2022-09-01T02:20:00;4.00;3.07;1.90
64861;PMS5003;62652;42.274;-71.436;2022-09-01T02:21:00;3.17;3.17;2.17
64861;PMS5003;62652;42.274;-71.436;2022-09-01T02:22:00;3.33;3.00;2.17
64861;PMS5003;62652;42.274;-71.436;2022-09-01T02:23:00;3.60;3.60;2.63
64861;PMS5003;62652;42.274;-71.436;2022-09-01T02:24:01;3.27;3.27;2.30
64861;PMS5003;62652;42.274;-71.436;2022-09-01T02:25:00;3.27;3.10;2.27
64861;PMS5003;62652;42.274;-71.436;2022-09-01T02:26:00;3.60;2.83;2.00
64861;PMS5003;62652;42.274;-71.436;2022-09-01T02:27:00;4.57;3.83;2.60
64861;PMS5003;62652;42.274;-71.436;2022-09-01T02:28:00;2.17;2.17;1.33
64861;PMS5003;62652;42.274;-71.436;2022-09-01T02:29:01;3.43;3.43;1.73
64861;PMS5003;62652;42.274;-71.436;2022-09-01T02:30:00;3.27;3.10;2.13
64861;PMS5003;62652;42.274;-71.436;2022-09-01T02:31:00;3.00;3.00;2.37
64861;PMS5003;62652;42.274;-71.436;2022-09-01T02:32:00;3.33;3.33;2.73
64861;PMS5003;62652;42.274;-71.436;2022-09-01T02:33:00;3.23;3.23;2.33
64861;PMS5003;62652;42.274;-71.436;2022-09-01T02:34:00;3.13;2.87;2.10
64861;PMS5003;62652;42.274;-71.436;2022-09-01T02:35:00;3.47;3.47;2.67
64861;PMS5003;62652;42.274;-71.436;2022-09-01T02:36:01;2.47;2.47;2.10
64861;PMS5003;62652;42.274;-71.436;2022-09-01T02:37:00;4.57;4.33;3.00
64861;PMS5003;62652;42.274;-71.436;2022-09-01T02:38:00;4.20;3.90;2.43
64861;PMS5003;62652;42.274;-71.436;2022-09-01T02:39:00;2.67;2.67;1.93
64861;PMS5003;62652;42.274;-71.436;2022-09-01T02:40:00;2.40;2.10;1.67
64861;PMS5003;62652;42.274;-71.436;2022-09-01T02:41:00;4.80;3.53;2.80
64861;PMS5003;62652;42.274;-71.436;2022-09-01T02:42:00;3.43;3.10;2.43
64861;PMS5003;62652;42.274;-71.436;2022-09-01T02:43:00;3.30;3.30;2.77
64861;PMS5003;62652;42.274;-71.436;2022-09-01T02:44:00;3.00;2.90;1.97
64861;PMS5003;62652;42.274;-71.436;2022-09-01T02:45:00;4.93;3.87;2.87
64861;PMS5003;62652;42.274;-71.436;2022-09-01T02:46:00;3.67;3.63;3.00
64861;PMS5003;62652;42.274;-71.436;2022-09-01T02:47:00;4.07;4.07;2.40
64861;PMS5003;62652;42.274;-71.436;2022-09-01T02:48:00;3.17;3.07;2.53
64861;PMS5003;62652;42.274;-71.436;2022-09-01T02:49:00;4.67;4.00;3.00
64861;PMS5003;62652;42.274;-71.436;2022-09-01T02:50:00;4.53;4.53;4.00
64861;PMS5003;62652;42.274;-71.436;2022-09-01T02:51:00;4.23;3.63;2.57
64861;PMS5003;62652;42.274;-71.436;2022-09-01T02:52:00;3.80;3.80;2.90
64861;PMS5003;62652;42.274;-71.436;2022-09-01T02:53:00;3.83;3.83;2.80
64861;PMS5003;62652;42.274;-71.436;2022-09-01T02:54:00;2.80;2.80;2.53
64861;PMS5003;62652;42.274;-71.436;2022-09-01T02:55:00;2.90;2.90;2.10
64861;PMS5003;62652;42.274;-71.436;2022-09-01T02:56:00;3.07;3.07;2.20
64861;PMS5003;62652;42.274;-71.436;2022-09-01T02:57:00;4.07;4.07;3.43
64861;PMS5003;62652;42.274;-71.436;2022-09-01T02:58:00;4.40;4.00;3.17
64861;PMS5003;62652;42.274;-71.436;2022-09-01T02:59:00;3.13;3.13;1.77
64861;PMS5003;62652;42.274;-71.436;2022-09-01T03:00:01;3.23;3.23;2.93
64861;PMS5003;62652;42.274;-71.436;2022-09-01T03:01:00;4.20;4.20;2.93
64861;PMS5003;62652;42.274;-71.436;2022-09-01T03:02:00;2.63;2.63;2.37
64861;PMS5003;62652;42.274;-71.436;2022-09-01T03:03:00;2.83;2.83;1.90
64861;PMS5003;62652;42.274;-71.436;2022-09-01T03:04:01;3.13;3.13;2.00
64861;PMS5003;62652;42.274;-71.436;2022-09-01T03:05:00;2.50;2.40;1.80
64861;PMS5003;62652;42.274;-71.436;2022-09-01T03:06:00;4.40;4.40;3.17
64861;PMS5003;62652;42.274;-71.436;2022-09-01T03:07:00;3.27;2.90;2.47
64861;PMS5003;62652;42.274;-71.436;2022-09-01T03:08:01;4.17;3.90;3.00
64861;PMS5003;62652;42.274;-71.436;2022-09-01T03:09:00;4.13;4.13;3.00
64861;PMS5003;62652;42.274;-71.436;2022-09-01T03:10:00;3.27;3.07;2.00
64861;PMS5003;62652;42.274;-71.436;2022-09-01T03:11:00;2.47;2.47;1.77
64861;PMS5003;62652;42.274;-71.436;2022-09-01T03:12:00;3.37;3.37;2.57
64861;PMS5003;62652;42.274;-71.436;2022-09-01T03:13:00;3.43;3.43;2.43
64861;PMS5003;62652;42.274;-71.436;2022-09-01T03:14:00;3.17;3.17;2.17
64861;PMS5003;62652;42.274;-71.436;2022-09-01T03:15:00;3.80;3.53;2.80
64861;PMS5003;62652;42.274;-71.436;2022-09-01T03:16:00;4.10;4.10;2.83
64861;PMS5003;62652;42.274;-71.436;2022-09-01T03:17:00;6.67;6.67;4.70
64861;PMS5003;62652;42.274;-71.436;2022-09-01T03:18:00;4.10;4.10;3.10
64861;PMS5003;62652;42.274;-71.436;2022-09-01T03:19:00;4.63;4.17;2.70
64861;PMS5003;62652;42.274;-71.436;2022-09-01T03:20:00;3.47;3.27;2.47
64861;PMS5003;62652;42.274;-71.436;2022-09-01T03:21:00;3.87;3.20;2.00
64861;PMS5003;62652;42.274;-71.436;2022-09-01T03:22:00;3.30;3.30;3.20
64861;PMS5003;62652;42.274;-71.436;2022-09-01T03:23:00;3.90;3.90;3.00
64861;PMS5003;62652;42.274;-71.436;2022-09-01T03:24:00;3.47;3.07;2.47
64861;PMS5003;62652;42.274;-71.436;2022-09-01T03:25:00;3.37;3.37;2.37
64861;PMS5003;62652;42.274;-71.436;2022-09-01T03:26:00;4.10;4.00;3.00
64861;PMS5003;62652;42.274;-71.436;2022-09-01T03:27:00;3.33;3.33;2.33
64861;PMS5003;62652;42.274;-71.436;2022-09-01T03:28:00;4.90;4.70;3.13
64861;PMS5003;62652;42.274;-71.436;2022-09-01T03:29:00;3.40;2.73;2.20
64861;PMS5003;62652;42.274;-71.436;2022-09-01T03:30:00;3.30;3.30;2.57
64861;PMS5003;62652;42.274;-71.436;2022-09-01T03:31:00;4.23;3.57;2.13
64861;PMS5003;62652;42.274;-71.436;2022-09-01T03:32:00;3.87;3.87;2.87
64861;PMS5003;62652;42.274;-71.436;2022-09-01T03:33:01;3.00;3.00;2.53
64861;PMS5003;62652;42.274;-71.436;2022-09-01T03:34:00;4.90;4.63;2.73
64861;PMS5003;62652;42.274;-71.436;2022-09-01T03:35:00;3.97;3.83;2.73
64861;PMS5003;62652;42.274;-71.436;2022-09-01T03:36:00;3.97;3.13;2.03
64861;PMS5003;62652;42.274;-71.436;2022-09-01T03:37:00;2.87;2.70;1.43
64861;PMS5003;62652;42.274;-71.436;2022-09-01T03:38:00;3.90;3.70;2.70
64861;PMS5003;62652;42.274;-71.436;2022-09-01T03:39:00;3.13;3.13;2.30
64861;PMS5003;62652;42.274;-71.436;2022-09-01T03:40:00;4.47;3.47;2.97
64861;PMS5003;62652;42.274;-71.436;2022-09-01T03:41:01;3.13;3.00;2.00
64861;PMS5003;62652;42.274;-71.436;2022-09-01T03:42:00;3.93;3.93;2.93
64861;PMS5003;62652;42.274;-71.436;2022-09-01T03:43:01;3.23;3.23;2.67
64861;PMS5003;62652;42.274;-71.436;2022-09-01T03:44:00;2.90;2.90;2.90
64861;PMS5003;62652;42.274;-71.436;2022-09-01T03:45:00;4.07;4.07;2.73
64861;PMS5003;62652;42.274;-71.436;2022-09-01T03:46:00;3.87;3.63;2.83
64861;PMS5003;62652;42.274;-71.436;2022-09-01T03:47:00;5.13;4.70;2.70
64861;PMS5003;62652;42.274;-71.436;2022-09-01T03:48:00;4.43;4.43;3.70
64861;PMS5003;62652;42.274;-71.436;2022-09-01T03:49:00;4.17;3.73;2.77
64861;PMS5003;62652;42.274;-71.436;2022-09-01T03:50:00;4.53;4.53;3.43
64861;PMS5003;62652;42.274;-71.436;2022-09-01T03:51:00;4.30;4.30;3.00
64861;PMS5003;62652;42.274;-71.436;2022-09-01T03:52:00;5.17;4.00;3.00
64861;PMS5003;62652;42.274;-71.436;2022-09-01T03:53:00;4.10;4.10;3.33
64861;PMS5003;62652;42.274;-71.436;2022-09-01T03:54:00;4.30;4.00;2.10
64861;PMS5003;62652;42.274;-71.436;2022-09-01T03:55:00;3.30;3.30;2.77
64861;PMS5003;62652;42.274;-71.436;2022-09-01T03:56:00;3.10;3.10;1.97
64861;PMS5003;62652;42.274;-71.436;2022-09-01T03:57:00;4.80;4.70;3.17
64861;PMS5003;62652;42.274;-71.436;2022-09-01T03:58:01;5.67;5.07;3.93
64861;PMS5003;62652;42.274;-71.436;2022-09-01T03:59:00;4.93;4.93;3.60
64861;PMS5003;62652;42.274;-71.436;2022-09-01T04:00:00;4.63;4.47;3.47
64861;PMS5003;62652;42.274;-71.436;2022-09-01T04:01:00;4.50;4.00;3.00
64861;PMS5003;62652;42.274;-71.436;2022-09-01T04:02:00;4.23;3.87;2.93
64861;PMS5003;62652;42.274;-71.436;2022-09-01T04:03:00;4.13;4.13;3.00
64861;PMS5003;62652;42.274;-71.436;2022-09-01T04:04:00;5.07;5.07;4.13
64861;PMS5003;62652;42.274;-71.436;2022-09-01T04:05:00;5.33;4.67;3.43
64861;PMS5003;62652;42.274;-71.436;2022-09-01T04:06:01;5.43;4.90;3.70
64861;PMS5003;62652;42.274;-71.436;2022-09-01T04:07:00;3.90;3.90;2.70
64861;PMS5003;62652;42.274;-71.436;2022-09-01T04:08:01;5.23;4.90;3.17
64861;PMS5003;62652;42.274;-71.436;2022-09-01T04:09:00;4.90;4.90;3.53
64861;PMS5003;62652;42.274;-71.436;2022-09-01T04:10:00;4.60;4.17;2.90
64861;PMS5003;62652;42.274;-71.436;2022-09-01T04:11:01;4.80;3.87;2.60
64861;PMS5003;62652;42.274;-71.436;2022-09-01T04:12:00;3.77;3.77;3.07
64861;PMS5003;62652;42.274;-71.436;2022-09-01T04:13:00;3.53;3.53;2.30
64861;PMS5003;62652;42.274;-71.436;2022-09-01T04:14:00;4.40;4.40;3.00
64861;PMS5003;62652;42.274;-71.436;2022-09-01T04:15:00;4.70;4.47;2.93
64861;PMS5003;62652;42.274;-71.436;2022-09-01T04:16:00;3.37;3.17;2.70
64861;PMS5003;62652;42.274;-71.436;2022-09-01T04:17:00;4.37;4.27;3.00
64861;PMS5003;62652;42.274;-71.436;2022-09-01T04:18:00;3.67;3.33;2.43
64861;PMS5003;62652;42.274;-71.436;2022-09-01T04:19:00;4.43;4.20;2.67
64861;PMS5003;62652;42.274;-71.436;2022-09-01T04:20:00;3.47;3.37;2.87
64861;PMS5003;62652;42.274;-71.436;2022-09-01T04:21:00;4.27;4.27;3.00
64861;PMS5003;62652;42.274;-71.436;2022-09-01T04:22:00;3.63;3.63;2.50
64861;PMS5003;62652;42.274;-71.436;2022-09-01T04:23:00;4.03;3.93;2.77
64861;PMS5003;62652;42.274;-71.436;2022-09-01T04:24:00;3.10;2.73;2.00
64861;PMS5003;62652;42.274;-71.436;2022-09-01T04:25:00;4.07;4.07;2.97
64861;PMS5003;62652;42.274;-71.436;2022-09-01T04:26:01;4.53;3.97;2.97
64861;PMS5003;62652;42.274;-71.436;2022-09-01T04:27:01;3.30;3.30;2.37
64861;PMS5003;62652;42.274;-71.436;2022-09-01T04:28:00;3.63;3.43;3.13
64861;PMS5003;62652;42.274;-71.436;2022-09-01T04:29:00;3.50;3.50;2.90
64861;PMS5003;62652;42.274;-71.436;2022-09-01T04:30:00;3.83;3.83;2.40
64861;PMS5003;62652;42.274;-71.436;2022-09-01T04:31:01;3.27;3.27;2.57
64861;PMS5003;62652;42.274;-71.436;2022-09-01T04:32:01;3.80;3.50;2.73
64861;PMS5003;62652;42.274;-71.436;2022-09-01T04:33:00;4.83;4.43;2.37
64861;PMS5003;62652;42.274;-71.436;2022-09-01T04:34:00;4.63;4.00;3.37
64861;PMS5003;62652;42.274;-71.436;2022-09-01T04:35:00;4.07;3.40;2.20
64861;PMS5003;62652;42.274;-71.436;2022-09-01T04:36:00;3.87;3.87;2.87
64861;PMS5003;62652;42.274;-71.436;2022-09-01T04:37:00;3.67;3.67;2.63
64861;PMS5003;62652;42.274;-71.436;2022-09-01T04:38:00;4.73;4.43;2.43
64861;PMS5003;62652;42.274;-71.436;2022-09-01T04:39:01;4.13;4.13;3.00
64861;PMS5003;62652;42.274;-71.436;2022-09-01T04:40:00;3.90;3.80;2.80
64861;PMS5003;62652;42.274;-71.436;2022-09-01T04:41:02;4.17;4.17;3.10
64861;PMS5003;62652;42.274;-71.436;2022-09-01T04:42:00;4.57;4.57;3.57
64861;PMS5003;62652;42.274;-71.436;2022-09-01T04:43:00;5.07;4.93;3.40
64861;PMS5003;62652;42.274;-71.436;2022-09-01T04:44:00;4.10;3.67;2.53
64861;PMS5003;62652;42.274;-71.436;2022-09-01T04:45:00;2.53;2.53;1.80
64861;PMS5003;62652;42.274;-71.436;2022-09-01T04:46:00;2.60;2.60;2.20
64861;PMS5003;62652;42.274;-71.436;2022-09-01T04:47:00;3.20;3.20;2.60
64861;PMS5003;62652;42.274;-71.436;2022-09-01T04:48:00;3.43;3.43;2.63
64861;PMS5003;62652;42.274;-71.436;2022-09-01T04:49:00;4.77;4.40;3.00
64861;PMS5003;62652;42.274;-71.436;2022-09-01T04:50:00;5.40;5.40;3.50
64861;PMS5003;62652;42.274;-71.436;2022-09-01T04:51:00;5.20;4.47;3.67
64861;PMS5003;62652;42.274;-71.436;2022-09-01T04:52:00;3.23;3.23;2.80
64861;PMS5003;62652;42.274;-71.436;2022-09-01T04:53:00;4.00;4.00;3.00
64861;PMS5003;62652;42.274;-71.436;2022-09-01T04:54:00;2.30;2.30;1.77
64861;PMS5003;62652;42.274;-71.436;2022-09-01T04:55:00;3.63;3.33;3.00
64861;PMS5003;62652;42.274;-71.436;2022-09-01T04:56:01;3.27;3.27;2.27
64861;PMS5003;62652;42.274;-71.436;2022-09-01T04:57:00;4.00;3.80;2.73
64861;PMS5003;62652;42.274;-71.436;2022-09-01T04:58:00;4.60;4.37;3.27
64861;PMS5003;62652;42.274;-71.436;2022-09-01T04:59:00;4.40;3.70;2.30
64861;PMS5003;62652;42.274;-71.436;2022-09-01T05:00:00;4.00;4.00;3.00
64861;PMS5003;62652;42.274;-71.436;2022-09-01T05:01:00;3.57;3.57;2.27
64861;PMS5003;62652;42.274;-71.436;2022-09-01T05:02:00;4.00;4.00;3.40
64861;PMS5003;62652;42.274;-71.436;2022-09-01T05:03:01;3.97;3.97;3.13
64861;PMS5003;62652;42.274;-71.436;2022-09-01T05:04:00;4.40;3.53;2.73
64861;PMS5003;62652;42.274;-71.436;2022-09-01T05:05:00;4.87;4.43;3.33
64861;PMS5003;62652;42.274;-71.436;2022-09-01T05:06:00;3.17;3.17;2.90
64861;PMS5003;62652;42.274;-71.436;2022-09-01T05:07:00;2.90;2.90;2.50
64861;PMS5003;62652;42.274;-71.436;2022-09-01T05:08:00;4.63;4.13;3.63
64861;PMS5003;62652;42.274;-71.436;2022-09-01T05:09:00;4.00;4.00;3.07
64861;PMS5003;62652;42.274;-71.436;2022-09-01T05:10:00;3.40;3.40;2.90
64861;PMS5003;62652;42.274;-71.436;2022-09-01T05:11:02;3.10;3.10;2.20
64861;PMS5003;62652;42.274;-71.436;2022-09-01T05:12:01;4.23;4.23;3.27
64861;PMS5003;62652;42.274;-71.436;2022-09-01T05:13:00;3.17;3.17;2.27
64861;PMS5003;62652;42.274;-71.436;2022-09-01T05:14:00;3.37;3.37;2.37
64861;PMS5003;62652;42.274;-71.436;2022-09-01T05:15:00;3.70;3.40;2.90
64861;PMS5003;62652;42.274;-71.436;2022-09-01T05:16:01;4.00;3.37;2.37
64861;PMS5003;62652;42.274;-71.436;2022-09-01T05:17:00;4.10;3.53;2.07
64861;PMS5003;62652;42.274;-71.436;2022-09-01T05:18:00;3.93;3.93;2.87
64861;PMS5003;62652;42.274;-71.436;2022-09-01T05:19:00;4.97;4.97;3.83
64861;PMS5003;62652;42.274;-71.436;2022-09-01T05:20:00;3.33;3.27;2.27
64861;PMS5003;62652;42.274;-71.436;2022-09-01T05:21:03;3.33;3.33;2.73
64861;PMS5003;62652;42.274;-71.436;2022-09-01T05:22:00;3.17;2.93;2.47
64861;PMS5003;62652;42.274;-71.436;2022-09-01T05:23:00;3.30;3.30;2.60
64861;PMS5003;62652;42.274;-71.436;2022-09-01T05:24:00;4.13;4.13;3.00
64861;PMS5003;62652;42.274;-71.436;2022-09-01T05:25:00;4.77;4.77;3.07
64861;PMS5003;62652;42.274;-71.436;2022-09-01T05:26:00;3.63;3.53;2.77
64861;PMS5003;62652;42.274;-71.436;2022-09-01T05:27:00;3.73;3.73;2.53
64861;PMS5003;62652;42.274;-71.436;2022-09-01T05:28:00;3.93;3.93;2.77
64861;PMS5003;62652;42.274;-71.436;2022-09-01T05:29:01;5.63;3.90;3.00
64861;PMS5003;62652;42.274;-71.436;2022-09-01T05:30:00;3.77;3.57;2.47
64861;PMS5003;62652;42.274;-71.436;2022-09-01T05:31:00;3.77;3.77;2.93
64861;PMS5003;62652;42.274;-71.436;2022-09-01T05:32:00;3.87;3.87;2.87
64861;PMS5003;62652;42.274;-71.436;2022-09-01T05:33:00;3.37;3.37;2.77
64861;PMS5003;62652;42.274;-71.436;2022-09-01T05:34:00;3.30;3.30;2.80
64861;PMS5003;62652;42.274;-71.436;2022-09-01T05:35:00;4.53;4.10;3.60
64861;PMS5003;62652;42.274;-71.436;2022-09-01T05:36:00;4.37;3.80;2.90
64861;PMS5003;62652;42.274;-71.436;2022-09-01T05:37:00;4.47;4.47;3.10
64861;PMS5003;62652;42.274;-71.436;2022-09-01T05:38:00;3.87;3.63;2.73
64861;PMS5003;62652;42.274;-71.436;2022-09-01T05:39:00;3.67;3.67;2.77
64861;PMS5003;62652;42.274;-71.436;2022-09-01T05:40:00;4.53;4.53;3.10
64861;PMS5003;62652;42.274;-71.436;2022-09-01T05:41:00;4.10;3.80;3.00